Time;durP1;ratioP1;P1;durP2;ratioP2;P2;SDS_P1;SDS_P2;PMS_P1;PMS_P2;Temp;Humidity;BMP_temperature;BMP_pressure;BME280_temperature;BME280_humidity;BME280_pressure;Samples;Min_cycle;Max_cycle;Signal;HPM_P1;HPM_P2
2024/04/03 00:01:27;;;;;;;4.97;1.87;;;12.60;99.90;;;;;;5074363;28;20440;-57
2024/04/03 00:03:53;;;;;;;5.27;1.57;;;12.60;99.90;;;;;;5074291;28;20203;-58
2024/04/03 00:06:20;;;;;;;4.37;1.70;;;12.60;99.90;;;;;;5074213;28;20972;-57
2024/04/03 00:08:46;;;;;;;3.70;1.37;;;12.50;99.90;;;;;;5073627;28;20309;-56
2024/04/03 00:11:13;;;;;;;4.00;1.63;;;12.60;99.90;;;;;;5073828;28;20567;-57
2024/04/03 00:13:40;;;;;;;5.33;1.47;;;12.60;99.90;;;;;;5074001;28;20293;-57
2024/04/03 00:16:07;;;;;;;4.13;1.20;;;12.50;99.90;;;;;;5074868;28;20444;-57
2024/04/03 00:18:33;;;;;;;1.73;1.30;;;12.50;99.90;;;;;;5074038;28;20551;-56
2024/04/03 00:21:01;;;;;;;3.13;1.70;;;12.60;99.90;;;;;;5074053;28;20524;-57
2024/04/03 00:23:27;;;;;;;7.27;1.23;;;12.60;99.90;;;;;;5074178;28;20233;-57
2024/04/03 00:26:01;;;;;;;2.13;1.23;;;12.60;99.90;;;;;;5073973;28;20445;-57
2024/04/03 00:28:29;;;;;;;1.47;1.10;;;12.60;99.90;;;;;;5073486;28;20480;-56
2024/04/03 00:31:01;;;;;;;7.30;2.53;;;12.60;99.90;;;;;;5073428;28;20846;-58
2024/04/03 00:33:27;;;;;;;4.00;1.37;;;12.60;99.90;;;;;;5073750;28;20425;-57
2024/04/03 00:35:58;;;;;;;2.60;1.43;;;12.60;99.90;;;;;;5073792;28;20467;-57
2024/04/03 00:38:24;;;;;;;7.07;1.33;;;12.50;99.90;;;;;;5073560;28;20222;-57
2024/04/03 00:40:58;;;;;;;3.07;1.60;;;12.60;99.90;;;;;;5073584;28;20433;-57
2024/04/03 00:43:24;;;;;;;4.23;1.37;;;12.60;99.90;;;;;;5073576;28;20462;-57
2024/04/03 00:45:52;;;;;;;5.33;1.53;;;12.60;99.90;;;;;;5073574;28;20753;-57
2024/04/03 00:48:22;;;;;;;6.37;1.97;;;12.60;99.90;;;;;;5073447;28;20467;-57
2024/04/03 00:50:50;;;;;;;5.70;2.10;;;12.60;99.90;;;;;;5073481;28;20814;-57
2024/04/03 00:53:18;;;;;;;3.90;1.53;;;12.60;99.90;;;;;;5073522;28;20440;-57
2024/04/03 00:55:43;;;;;;;6.67;1.70;;;12.50;99.90;;;;;;5073458;28;20444;-57
2024/04/03 00:58:10;;;;;;;6.30;1.67;;;12.50;99.90;;;;;;5073229;28;20543;-57
2024/04/03 01:00:36;;;;;;;2.40;1.40;;;12.50;99.90;;;;;;5073046;28;20213;-57
2024/04/03 01:03:04;;;;;;;2.60;1.70;;;12.50;99.90;;;;;;5074222;28;20527;-57
2024/04/03 01:05:32;;;;;;;4.43;1.13;;;12.60;99.90;;;;;;5073019;28;20449;-57
2024/04/03 01:07:59;;;;;;;8.80;1.63;;;12.50;99.90;;;;;;5072181;28;20555;-57
2024/04/03 01:10:26;;;;;;;4.57;1.50;;;12.60;99.90;;;;;;5073230;28;20445;-57
2024/04/03 01:12:54;;;;;;;7.53;1.80;;;12.50;99.90;;;;;;5072946;28;20473;-57
2024/04/03 01:15:20;;;;;;;3.50;1.50;;;12.50;99.90;;;;;;5073129;28;20448;-56
2024/04/03 01:17:46;;;;;;;4.67;1.63;;;12.50;99.90;;;;;;5073205;28;20463;-57
2024/04/03 01:20:12;;;;;;;4.27;1.60;;;12.60;99.90;;;;;;5073178;28;20198;-56
2024/04/03 01:22:40;;;;;;;5.03;1.90;;;12.60;99.90;;;;;;5073142;28;20436;-57
2024/04/03 01:25:08;;;;;;;5.70;2.03;;;12.50;99.90;;;;;;5072899;28;20686;-57
2024/04/03 01:27:34;;;;;;;8.60;2.37;;;12.50;99.90;;;;;;5072970;28;20480;-57
2024/04/03 01:30:00;;;;;;;4.60;1.70;;;12.50;99.90;;;;;;5072863;28;20455;-56
2024/04/03 01:32:28;;;;;;;6.77;1.80;;;12.50;99.90;;;;;;5073038;28;20476;-57
2024/04/03 01:34:53;;;;;;;5.87;2.07;;;12.50;99.90;;;;;;5073139;28;20198;-56
2024/04/03 01:37:21;;;;;;;4.80;2.00;;;12.60;99.90;;;;;;5073010;28;20522;-56
2024/04/03 01:39:47;;;;;;;7.33;1.80;;;12.60;99.90;;;;;;5073014;28;20199;-56
2024/04/03 01:42:16;;;;;;;9.33;2.57;;;12.60;99.90;;;;;;5073728;28;20448;-57
2024/04/03 01:44:42;;;;;;;5.73;1.50;;;12.50;99.90;;;;;;5072748;28;20297;-57
2024/04/03 01:47:09;;;;;;;4.40;1.80;;;12.50;99.90;;;;;;5073192;28;20561;-57
2024/04/03 01:49:34;;;;;;;7.13;2.00;;;12.50;99.90;;;;;;5072572;28;20241;-57
2024/04/03 01:52:01;;;;;;;5.13;1.80;;;12.50;99.90;;;;;;5072836;28;20504;-57
2024/04/03 01:54:27;;;;;;;6.70;2.00;;;12.50;99.90;;;;;;5072866;28;20198;-57
2024/04/03 01:56:54;;;;;;;8.77;1.87;;;12.50;99.90;;;;;;5072479;28;20440;-57
2024/04/03 01:59:21;;;;;;;5.60;1.63;;;12.50;99.90;;;;;;5072893;28;20206;-57
2024/04/03 02:01:48;;;;;;;8.10;2.13;;;12.50;99.90;;;;;;5072928;28;20449;-57
2024/04/03 02:04:14;;;;;;;4.17;1.80;;;12.50;99.90;;;;;;5072694;28;20479;-57
2024/04/03 02:06:41;;;;;;;5.40;1.70;;;12.50;99.90;;;;;;5072701;28;20476;-57
2024/04/03 02:09:07;;;;;;;5.63;2.00;;;12.50;99.90;;;;;;5073046;28;20502;-57
2024/04/03 02:11:33;;;;;;;9.53;2.10;;;12.50;99.90;;;;;;5072634;28;20477;-57
2024/04/03 02:13:59;;;;;;;6.60;1.97;;;12.50;99.90;;;;;;5072689;28;20209;-57
2024/04/03 02:16:30;;;;;;;4.57;1.70;;;12.50;99.90;;;;;;5072715;28;20437;-57
2024/04/03 02:18:56;;;;;;;5.03;1.80;;;12.50;99.90;;;;;;5074541;28;20272;-57
2024/04/03 02:21:22;;;;;;;6.93;1.50;;;12.50;99.90;;;;;;5077065;28;20647;-57
2024/04/03 02:23:48;;;;;;;4.10;1.10;;;12.50;99.90;;;;;;5076178;28;20445;-56
2024/04/03 02:26:15;;;;;;;6.33;1.60;;;12.50;99.90;;;;;;5076154;28;20450;-57
2024/04/03 02:28:41;;;;;;;3.57;1.73;;;12.50;99.90;;;;;;5075705;28;20241;-57
2024/04/03 02:31:08;;;;;;;4.43;1.70;;;12.50;99.90;;;;;;5076048;28;20444;-57
2024/04/03 02:33:35;;;;;;;4.50;1.93;;;12.50;99.90;;;;;;5076067;28;20199;-57
2024/04/03 02:36:08;;;;;;;6.43;2.10;;;12.50;99.90;;;;;;5075868;28;20452;-57
2024/04/03 02:38:34;;;;;;;5.73;1.27;;;12.60;99.90;;;;;;5076454;28;20472;-57
2024/04/03 02:41:01;;;;;;;5.37;1.30;;;12.60;99.90;;;;;;5075754;28;20454;-56
2024/04/03 02:43:27;;;;;;;2.30;1.53;;;12.60;99.90;;;;;;5076068;28;20199;-57
2024/04/03 02:45:54;;;;;;;4.97;1.97;;;12.60;99.90;;;;;;5075900;28;20444;-57
2024/04/03 02:48:20;;;;;;;2.57;1.43;;;12.60;99.90;;;;;;5075673;28;20244;-56
2024/04/03 02:50:48;;;;;;;3.70;1.33;;;12.60;99.90;;;;;;5075557;28;21010;-57
2024/04/03 02:53:14;;;;;;;6.33;1.53;;;12.60;99.90;;;;;;5075681;28;20226;-57
2024/04/03 02:55:41;;;;;;;7.20;1.73;;;12.60;99.90;;;;;;5075409;28;20440;-57
2024/04/03 02:58:07;;;;;;;5.17;1.80;;;12.50;99.90;;;;;;5075215;28;20461;-56
2024/04/03 03:00:34;;;;;;;3.70;1.60;;;12.50;99.90;;;;;;5075568;28;20444;-57
2024/04/03 03:03:00;;;;;;;4.07;1.90;;;12.50;99.90;;;;;;5075632;28;20198;-57
2024/04/03 03:05:26;;;;;;;5.87;2.00;;;12.40;99.90;;;;;;5075295;28;20436;-56
2024/04/03 03:07:54;;;;;;;7.20;2.50;;;12.40;99.90;;;;;;5075402;28;20219;-57
2024/04/03 03:10:20;;;;;;;6.20;1.67;;;12.40;99.90;;;;;;5075374;28;20445;-56
2024/04/03 03:12:46;;;;;;;4.30;1.77;;;12.40;99.90;;;;;;5075297;28;20477;-57
2024/04/03 03:15:13;;;;;;;2.90;1.37;;;12.40;99.90;;;;;;5075235;28;20494;-57
2024/04/03 03:17:39;;;;;;;3.83;1.60;;;12.40;99.90;;;;;;5075200;28;20218;-56
2024/04/03 03:20:07;;;;;;;4.33;1.70;;;12.40;99.90;;;;;;5075278;28;20451;-57
2024/04/03 03:22:32;;;;;;;6.00;1.90;;;12.40;99.90;;;;;;5075204;28;20205;-56
2024/04/03 03:25:01;;;;;;;3.03;1.90;;;12.40;99.90;;;;;;5074885;28;20831;-57
2024/04/03 03:27:26;;;;;;;4.80;1.70;;;12.40;99.90;;;;;;5074826;28;20237;-56
2024/04/03 03:29:53;;;;;;;3.40;1.70;;;12.40;99.90;;;;;;5074377;28;20823;-57
2024/04/03 03:32:19;;;;;;;6.37;1.73;;;12.50;99.90;;;;;;5074859;28;20229;-56
2024/04/03 03:34:46;;;;;;;3.33;1.90;;;12.50;99.90;;;;;;5075493;28;20436;-56
2024/04/03 03:37:12;;;;;;;5.03;1.97;;;12.50;99.90;;;;;;5074906;28;20230;-56
2024/04/03 03:39:42;;;;;;;4.37;2.30;;;12.40;99.90;;;;;;5074748;28;20451;-56
2024/04/03 03:42:10;;;;;;;5.13;3.40;;;12.40;99.90;;;;;;5074554;28;20467;-57
2024/04/03 03:44:37;;;;;;;4.80;3.20;;;12.40;99.90;;;;;;5074862;28;20449;-58
2024/04/03 03:47:03;;;;;;;4.70;3.23;;;12.40;99.90;;;;;;5074591;28;20460;-58
2024/04/03 03:55:00;;;;;;;4.87;2.90;;;12.30;99.90;;;;;;5074553;28;20898;-57
2024/04/03 03:57:30;;;;;;;3.60;2.57;;;12.30;99.90;;;;;;5074265;28;20988;-57
2024/04/03 03:59:57;;;;;;;6.23;2.70;;;12.30;99.90;;;;;;5074563;28;20448;-58
2024/04/03 04:02:24;;;;;;;7.13;3.07;;;12.30;99.90;;;;;;5074252;28;20441;-57
2024/04/03 04:04:50;;;;;;;7.40;2.60;;;12.30;99.90;;;;;;5074362;28;20445;-57
2024/04/03 04:07:18;;;;;;;5.90;2.20;;;12.30;99.90;;;;;;5073718;28;20918;-56
2024/04/03 04:09:47;;;;;;;9.37;2.63;;;12.30;99.90;;;;;;5073920;28;20943;-57
2024/04/03 04:12:14;;;;;;;3.60;2.13;;;12.20;99.90;;;;;;5074222;28;20575;-57
2024/04/03 04:14:41;;;;;;;7.93;2.70;;;12.30;99.90;;;;;;5073852;28;20950;-57
2024/04/03 04:17:08;;;;;;;3.33;2.23;;;12.30;99.90;;;;;;5073742;28;20468;-56
2024/04/03 04:19:34;;;;;;;4.80;2.17;;;12.30;99.90;;;;;;5073729;28;20818;-57
2024/04/03 04:22:00;;;;;;;6.57;2.30;;;12.30;99.90;;;;;;5073966;28;20464;-57
2024/04/03 04:24:26;;;;;;;5.00;3.17;;;12.30;99.90;;;;;;5073978;28;20202;-56
2024/04/03 04:26:59;;;;;;;5.07;2.70;;;12.30;99.90;;;;;;5073529;28;20814;-56
2024/04/03 04:29:26;;;;;;;4.13;2.27;;;12.30;99.90;;;;;;5073966;28;20217;-57
2024/04/03 04:31:55;;;;;;;6.30;2.50;;;12.30;99.90;;;;;;5073856;28;20484;-57
2024/04/03 04:34:20;;;;;;;7.93;2.80;;;12.40;99.90;;;;;;5073872;28;20440;-56
2024/04/03 04:36:47;;;;;;;8.07;2.37;;;12.40;99.90;;;;;;5073388;28;21010;-57
2024/04/03 04:39:13;;;;;;;3.87;1.87;;;12.40;99.90;;;;;;5074303;28;20207;-56
2024/04/03 04:41:40;;;;;;;4.70;2.80;;;12.40;99.90;;;;;;5073084;28;20480;-57
2024/04/03 04:44:06;;;;;;;3.60;2.20;;;12.40;99.90;;;;;;5073761;28;20209;-56
2024/04/03 04:46:32;;;;;;;5.07;2.37;;;12.40;99.90;;;;;;5073820;28;20524;-57
2024/04/03 04:49:00;;;;;;;7.90;2.83;;;12.40;99.90;;;;;;5073129;28;20496;-56
2024/04/03 04:51:26;;;;;;;8.60;3.00;;;12.40;99.90;;;;;;5073679;28;20444;-57
2024/04/03 04:53:52;;;;;;;5.23;2.87;;;12.40;99.90;;;;;;5073782;28;20444;-57
2024/04/03 04:56:19;;;;;;;10.17;4.83;;;12.40;99.90;;;;;;5073185;28;20451;-57
2024/04/03 04:58:45;;;;;;;5.80;3.10;;;12.30;99.90;;;;;;5072734;28;20228;-56
2024/04/03 05:01:11;;;;;;;5.00;2.83;;;12.30;99.90;;;;;;5073522;28;20444;-57
2024/04/03 05:03:37;;;;;;;6.30;2.73;;;12.30;99.90;;;;;;5073467;28;20198;-57
2024/04/03 05:06:06;;;;;;;12.10;2.90;;;12.30;99.90;;;;;;5073199;28;20950;-57
2024/04/03 05:08:33;;;;;;;8.23;3.00;;;12.30;99.90;;;;;;5073254;28;20475;-56
2024/04/03 05:11:00;;;;;;;5.40;2.53;;;12.30;99.90;;;;;;5073078;28;20827;-57
2024/04/03 05:13:27;;;;;;;7.10;2.10;;;12.20;99.90;;;;;;5073300;28;20484;-57
2024/04/03 05:15:54;;;;;;;13.07;2.60;;;12.20;99.90;;;;;;5073322;28;20452;-57
2024/04/03 05:18:20;;;;;;;3.90;2.03;;;12.10;99.90;;;;;;5073320;28;20500;-57
2024/04/03 05:20:47;;;;;;;5.10;2.87;;;12.10;99.90;;;;;;5073329;28;20530;-57
2024/04/03 05:23:14;;;;;;;4.73;2.27;;;12.10;99.90;;;;;;5072948;28;20692;-56
2024/04/03 05:25:41;;;;;;;6.90;3.03;;;12.10;99.90;;;;;;5072733;28;21045;-56
2024/04/03 05:28:07;;;;;;;10.30;2.90;;;12.00;99.90;;;;;;5072675;28;20477;-57
2024/04/03 05:30:35;;;;;;;4.63;2.20;;;12.00;99.90;;;;;;5073091;28;20440;-57
2024/04/03 05:33:01;;;;;;;6.80;2.13;;;12.00;99.90;;;;;;5073031;28;20219;-57
2024/04/03 05:35:28;;;;;;;5.87;2.23;;;12.00;99.90;;;;;;5073098;28;20450;-56
2024/04/03 05:37:54;;;;;;;7.83;1.83;;;12.00;99.90;;;;;;5072796;28;20230;-57
2024/04/03 05:40:22;;;;;;;4.23;2.00;;;12.00;99.90;;;;;;5072732;28;20436;-57
2024/04/03 05:42:48;;;;;;;5.00;2.03;;;12.00;99.90;;;;;;5072996;28;20198;-57
2024/04/03 05:45:15;;;;;;;4.20;1.83;;;12.00;99.90;;;;;;5073011;28;20819;-57
2024/04/03 05:47:41;;;;;;;3.30;2.13;;;12.00;99.90;;;;;;5072829;28;20471;-56
2024/04/03 05:50:09;;;;;;;6.33;2.07;;;12.00;99.90;;;;;;5072853;28;20520;-56
2024/04/03 05:52:36;;;;;;;6.73;3.47;;;12.00;99.90;;;;;;5073049;28;20223;-57
2024/04/03 05:55:03;;;;;;;4.77;2.00;;;11.90;99.90;;;;;;5076707;28;20436;-57
2024/04/03 05:57:30;;;;;;;4.17;1.90;;;12.00;99.90;;;;;;5076772;28;20466;-57
2024/04/03 05:59:57;;;;;;;7.77;3.00;;;12.00;99.90;;;;;;5076807;28;20444;-57
2024/04/03 06:02:23;;;;;;;3.90;1.83;;;12.10;99.90;;;;;;5076503;28;20439;-57
2024/04/03 06:04:50;;;;;;;9.70;2.90;;;12.00;99.90;;;;;;5076424;28;20861;-57
2024/04/03 06:07:16;;;;;;;4.37;2.00;;;12.10;99.90;;;;;;5076549;28;20465;-57
2024/04/03 06:09:44;;;;;;;3.97;1.80;;;12.10;99.90;;;;;;5076452;28;20451;-57
2024/04/03 06:12:10;;;;;;;4.50;2.00;;;12.10;99.90;;;;;;5076665;28;20218;-58
2024/04/03 06:14:38;;;;;;;5.03;2.10;;;12.10;99.90;;;;;;5076457;28;21064;-57
2024/04/03 06:17:04;;;;;;;8.47;2.63;;;12.10;99.90;;;;;;5076147;28;20226;-57
2024/04/03 06:19:30;;;;;;;6.53;2.07;;;12.10;99.90;;;;;;5076337;28;20455;-58
2024/04/03 06:21:56;;;;;;;6.23;2.43;;;12.10;99.90;;;;;;5076068;28;20202;-57
2024/04/03 06:24:23;;;;;;;9.00;2.20;;;12.10;99.90;;;;;;5076288;28;20450;-57
2024/04/03 06:26:49;;;;;;;4.43;2.33;;;12.10;99.90;;;;;;5076082;28;20203;-57
2024/04/03 06:29:18;;;;;;;6.60;2.80;;;12.10;99.90;;;;;;5076343;28;20974;-57
2024/04/03 06:31:47;;;;;;;16.53;3.10;;;12.20;99.90;;;;;;5075792;28;20202;-58
2024/04/03 06:34:14;;;;;;;6.60;2.50;;;12.20;99.90;;;;;;5076057;28;20448;-58
2024/04/03 06:36:40;;;;;;;4.57;2.00;;;12.20;99.90;;;;;;5076068;28;20432;-57
2024/04/03 06:39:07;;;;;;;3.40;2.13;;;12.20;99.90;;;;;;5075875;28;20441;-57
2024/04/03 06:41:33;;;;;;;5.77;2.10;;;12.30;99.90;;;;;;5075752;28;20205;-57
2024/04/03 06:44:00;;;;;;;5.37;2.10;;;12.40;99.90;;;;;;5075994;28;20443;-58
2024/04/03 06:46:26;;;;;;;8.03;2.73;;;12.40;99.90;;;;;;5076082;28;20815;-58
2024/04/03 06:48:54;;;;;;;4.83;1.80;;;12.50;99.90;;;;;;5075752;28;20555;-57
2024/04/03 06:51:20;;;;;;;3.73;1.87;;;12.50;99.90;;;;;;5075773;28;20249;-57
2024/04/03 06:53:49;;;;;;;2.90;1.90;;;12.60;99.90;;;;;;5075693;28;20484;-57
2024/04/03 06:56:15;;;;;;;4.10;2.20;;;12.60;99.90;;;;;;5075617;28;20209;-57
2024/04/03 06:58:43;;;;;;;7.43;1.63;;;12.70;99.90;;;;;;5075495;28;20457;-57
2024/04/03 07:01:10;;;;;;;5.00;1.80;;;12.80;99.90;;;;;;5075861;28;20451;-57
2024/04/03 07:03:37;;;;;;;5.33;2.00;;;12.90;99.90;;;;;;5093656;28;20942;-58
2024/04/03 07:06:05;;;;;;;4.17;1.97;;;12.90;99.90;;;;;;5094406;28;20938;-57
2024/04/03 07:08:33;;;;;;;4.40;1.70;;;13.00;99.90;;;;;;5095769;28;20547;-57
2024/04/03 07:11:00;;;;;;;3.13;2.03;;;13.00;99.90;;;;;;5094918;28;20799;-57
2024/04/03 07:13:27;;;;;;;8.27;2.10;;;13.10;99.90;;;;;;5095653;28;20480;-57
2024/04/03 07:15:53;;;;;;;3.47;1.70;;;13.20;99.90;;;;;;5093643;28;20444;-56
2024/04/03 07:18:20;;;;;;;3.53;1.80;;;13.20;99.90;;;;;;5075913;28;20874;-57
2024/04/03 07:20:53;;;;;;;3.70;2.03;;;13.20;99.90;;;;;;5075621;28;20441;-57
2024/04/03 07:23:25;;;;;;;6.00;1.43;;;13.30;99.90;;;;;;5075722;28;20422;-57
2024/04/03 07:25:51;;;;;;;5.07;1.73;;;13.30;99.90;;;;;;5075651;28;20520;-57
2024/04/03 07:28:18;;;;;;;4.37;1.80;;;13.30;99.90;;;;;;5075221;28;20563;-57
2024/04/03 07:30:44;;;;;;;3.87;1.43;;;13.30;99.90;;;;;;5075177;28;20446;-57
2024/04/03 07:33:11;;;;;;;3.53;1.87;;;13.40;99.90;;;;;;5075399;28;20476;-57
2024/04/03 07:35:37;;;;;;;3.40;1.50;;;13.50;99.90;;;;;;5075280;28;20202;-57
2024/04/03 07:38:05;;;;;;;3.40;1.27;;;13.50;99.90;;;;;;5075277;28;20492;-57
2024/04/03 07:40:32;;;;;;;2.97;1.67;;;13.50;99.90;;;;;;5074737;28;20447;-57
2024/04/03 07:42:59;;;;;;;2.57;1.20;;;13.50;99.90;;;;;;5074786;28;20508;-58
2024/04/03 07:45:25;;;;;;;6.17;1.60;;;13.50;99.90;;;;;;5075105;28;20445;-57
2024/04/03 07:47:52;;;;;;;3.73;1.23;;;13.50;99.90;;;;;;5071951;28;20499;-57
2024/04/03 07:50:19;;;;;;;2.80;1.30;;;13.50;99.90;;;;;;5074833;28;20201;-57
2024/04/03 07:52:46;;;;;;;2.53;1.50;;;13.50;99.90;;;;;;5075063;28;20562;-57
2024/04/03 07:55:13;;;;;;;5.63;2.20;;;13.50;99.90;;;;;;5074680;28;20926;-57
2024/04/03 07:57:42;;;;;;;4.07;1.80;;;13.50;99.90;;;;;;5075281;28;20457;-57
2024/04/03 08:00:09;;;;;;;3.03;1.70;;;13.50;99.90;;;;;;5075140;28;20445;-57
2024/04/03 08:02:37;;;;;;;3.20;1.80;;;13.60;99.90;;;;;;5075094;28;20440;-57
2024/04/03 08:05:03;;;;;;;2.30;1.43;;;13.60;99.90;;;;;;5074868;28;20457;-57
2024/04/03 08:07:30;;;;;;;2.37;1.20;;;13.70;99.90;;;;;;5074317;28;21001;-57
2024/04/03 08:09:56;;;;;;;6.43;1.80;;;13.80;99.90;;;;;;5074400;28;20509;-57
2024/04/03 08:12:23;;;;;;;5.07;1.60;;;13.80;99.90;;;;;;5074379;28;20447;-57
2024/04/03 08:14:50;;;;;;;3.60;1.80;;;13.80;99.90;;;;;;5075166;28;20210;-57
2024/04/03 08:17:17;;;;;;;3.30;1.63;;;13.80;99.90;;;;;;5073951;28;20472;-57
2024/04/03 08:19:43;;;;;;;5.00;1.83;;;13.80;99.90;;;;;;5073939;28;20441;-57
2024/04/03 08:22:09;;;;;;;7.63;2.50;;;13.90;99.90;;;;;;5074100;28;20539;-57
2024/04/03 08:24:37;;;;;;;4.10;1.53;;;13.90;99.90;;;;;;5074044;28;20583;-58
2024/04/03 08:27:04;;;;;;;3.63;2.27;;;14.00;99.90;;;;;;5073567;28;20493;-58
2024/04/03 08:29:32;;;;;;;4.20;1.60;;;14.10;99.90;;;;;;5073530;28;20435;-57
2024/04/03 08:32:00;;;;;;;6.10;2.20;;;14.10;99.90;;;;;;5073677;28;20498;-57
2024/04/03 08:34:26;;;;;;;4.17;1.40;;;14.20;99.90;;;;;;5073886;28;20863;-58
2024/04/03 08:36:52;;;;;;;3.00;1.90;;;14.20;99.90;;;;;;5073663;28;20536;-58
2024/04/03 08:39:19;;;;;;;3.97;1.50;;;14.20;99.90;;;;;;5073278;28;20206;-57
2024/04/03 08:41:46;;;;;;;6.20;1.53;;;14.10;99.90;;;;;;5073754;28;20817;-58
2024/04/03 08:44:13;;;;;;;4.90;1.57;;;14.10;99.90;;;;;;5073679;28;20437;-57
2024/04/03 08:46:39;;;;;;;3.63;1.60;;;14.10;99.90;;;;;;5073553;28;20447;-57
2024/04/03 08:49:09;;;;;;;3.73;1.57;;;14.00;99.90;;;;;;5073786;28;20905;-57
2024/04/03 08:51:38;;;;;;;3.03;1.33;;;14.00;99.90;;;;;;5073270;28;20424;-57
2024/04/03 08:54:06;;;;;;;3.83;1.20;;;13.90;99.90;;;;;;5073205;28;21068;-57
2024/04/03 08:56:33;;;;;;;2.30;1.60;;;13.90;99.90;;;;;;5073097;28;20436;-57
2024/04/03 08:59:00;;;;;;;3.47;1.60;;;13.80;99.90;;;;;;5073402;28;20469;-57
2024/04/03 09:01:26;;;;;;;3.67;2.20;;;13.80;99.90;;;;;;5073476;28;20894;-58
2024/04/03 09:03:52;;;;;;;2.73;1.60;;;13.90;99.90;;;;;;5073420;28;20523;-57
2024/04/03 09:06:19;;;;;;;3.43;2.00;;;14.00;99.90;;;;;;5073153;28;20201;-57
2024/04/03 09:08:46;;;;;;;5.13;1.70;;;14.00;99.90;;;;;;5073116;28;20472;-57
2024/04/03 09:11:22;;;;;;;2.37;1.40;;;14.10;99.90;;;;;;5073492;28;20440;-57
2024/04/03 09:13:54;;;;;;;5.10;1.90;;;14.10;99.90;;;;;;5073311;28;20827;-57
2024/04/03 09:16:21;;;;;;;2.33;1.20;;;14.00;99.90;;;;;;5072955;28;20979;-57
2024/04/03 09:18:48;;;;;;;2.30;1.30;;;14.10;99.90;;;;;;5072854;28;20986;-57
2024/04/03 09:21:16;;;;;;;3.27;1.43;;;14.10;99.90;;;;;;5072886;28;21022;-57
2024/04/03 09:23:45;;;;;;;4.20;2.13;;;14.20;99.90;;;;;;5073250;28;20815;-58
2024/04/03 09:26:11;;;;;;;4.20;1.23;;;14.30;99.90;;;;;;5073163;28;20445;-57
2024/04/03 09:28:38;;;;;;;1.83;1.10;;;14.30;99.90;;;;;;5076375;28;20559;-58
2024/04/03 09:31:04;;;;;;;4.53;3.13;;;14.40;99.90;;;;;;5079791;28;20202;-58
2024/04/03 09:33:34;;;;;;;2.40;1.40;;;14.50;99.90;;;;;;5079677;28;20476;-58
2024/04/03 09:36:05;;;;;;;2.10;1.13;;;14.50;99.90;;;;;;5079746;28;20190;-58
2024/04/03 09:38:33;;;;;;;3.87;1.70;;;14.60;99.90;;;;;;5079718;28;20484;-58
2024/04/03 09:41:02;;;;;;;4.03;1.17;;;14.60;99.90;;;;;;5079665;28;20444;-57
2024/04/03 09:43:33;;;;;;;7.30;2.90;;;14.70;99.90;;;;;;5079256;28;20953;-57
2024/04/03 09:46:03;;;;;;;3.93;2.60;;;14.80;99.90;;;;;;5079682;28;20425;-57
2024/04/03 09:48:30;;;;;;;10.23;6.10;;;14.90;99.90;;;;;;5079510;28;20471;-57
2024/04/03 09:50:56;;;;;;;8.60;5.13;;;15.00;99.90;;;;;;5079321;28;20508;-58
2024/04/03 09:53:27;;;;;;;2.30;1.87;;;15.00;99.90;;;;;;5079578;28;20480;-58
2024/04/03 09:55:53;;;;;;;4.93;2.10;;;15.10;99.90;;;;;;5079629;28;20429;-58
2024/04/03 09:58:26;;;;;;;4.60;1.80;;;15.00;99.90;;;;;;5079422;28;20547;-57
2024/04/03 10:00:54;;;;;;;4.10;1.33;;;15.00;99.90;;;;;;5079618;28;20439;-58
2024/04/03 10:03:22;;;;;;;3.57;1.20;;;15.00;99.90;;;;;;5079486;28;20472;-58
2024/04/03 10:05:48;;;;;;;2.60;1.40;;;15.00;99.90;;;;;;5079123;28;20440;-57
2024/04/03 10:08:18;;;;;;;2.77;1.20;;;14.90;99.90;;;;;;5079421;28;20496;-57
2024/04/03 10:10:45;;;;;;;1.27;1.10;;;14.90;99.90;;;;;;5079353;28;20446;-57
2024/04/03 10:13:13;;;;;;;3.50;0.70;;;14.80;99.90;;;;;;5079267;28;20476;-57
2024/04/03 10:15:40;;;;;;;2.83;0.90;;;14.90;99.90;;;;;;5079375;28;20436;-57
2024/04/03 10:18:07;;;;;;;2.63;1.57;;;14.80;99.90;;;;;;5079233;28;20464;-57
2024/04/03 10:20:37;;;;;;;2.13;1.40;;;14.80;99.90;;;;;;5079357;28;20448;-57
2024/04/03 10:23:07;;;;;;;2.40;1.30;;;14.80;99.90;;;;;;5079397;28;20780;-57
2024/04/03 10:25:35;;;;;;;10.73;2.43;;;14.90;99.90;;;;;;5080987;28;20425;-56
2024/04/03 10:28:02;;;;;;;4.37;3.37;;;15.00;99.90;;;;;;5078719;28;20472;-56
2024/04/03 10:30:28;;;;;;;7.27;2.23;;;15.00;99.90;;;;;;5079013;28;20527;-56
2024/04/03 10:32:58;;;;;;;1.90;0.87;;;15.00;99.90;;;;;;5079263;28;20563;-57
2024/04/03 10:35:25;;;;;;;1.13;0.67;;;15.10;99.90;;;;;;5079231;28;20213;-56
2024/04/03 10:37:51;;;;;;;1.97;1.07;;;15.10;99.90;;;;;;5088417;28;20455;-56
2024/04/03 10:40:17;;;;;;;4.47;0.90;;;15.10;99.90;;;;;;5096933;28;20440;-56
2024/04/03 10:42:49;;;;;;;1.27;1.00;;;15.10;99.90;;;;;;5096178;28;20475;-56
2024/04/03 10:45:15;;;;;;;2.23;0.90;;;15.10;99.90;;;;;;5096271;28;20420;-56
2024/04/03 10:47:43;;;;;;;0.93;0.70;;;15.10;99.90;;;;;;5092905;28;20562;-55
2024/04/03 10:50:10;;;;;;;1.27;0.80;;;15.10;99.90;;;;;;5075722;28;20301;-56
2024/04/03 10:52:37;;;;;;;1.07;0.60;;;15.10;99.90;;;;;;5076675;28;20502;-56
2024/04/03 10:55:04;;;;;;;1.33;0.90;;;15.10;99.90;;;;;;5075807;28;20440;-56
2024/04/03 10:57:31;;;;;;;1.50;0.77;;;15.00;99.90;;;;;;5075627;28;20511;-56
2024/04/03 10:59:57;;;;;;;0.83;0.57;;;15.00;99.90;;;;;;5075408;28;20449;-56
2024/04/03 11:02:24;;;;;;;1.83;0.43;;;15.00;99.90;;;;;;5075581;28;20447;-56
2024/04/03 11:04:50;;;;;;;1.57;0.60;;;15.00;99.90;;;;;;5075266;28;20441;-56
2024/04/03 11:07:18;;;;;;;3.13;0.60;;;15.00;99.90;;;;;;5075283;28;20467;-56
2024/04/03 11:09:44;;;;;;;0.60;0.40;;;14.90;99.90;;;;;;5075093;28;20206;-55
2024/04/03 11:12:12;;;;;;;0.73;0.30;;;15.00;99.90;;;;;;5075505;28;20451;-56
2024/04/03 11:14:38;;;;;;;0.50;0.30;;;15.10;99.90;;;;;;5075518;28;20226;-56
2024/04/03 11:17:07;;;;;;;0.40;0.30;;;15.20;99.90;;;;;;5075391;28;20468;-56
2024/04/03 11:19:34;;;;;;;0.60;0.40;;;15.30;99.90;;;;;;5075538;28;20890;-55
2024/04/03 11:22:00;;;;;;;3.20;0.30;;;15.40;99.60;;;;;;5075114;28;20953;-56
2024/04/03 11:24:28;;;;;;;0.60;0.60;;;15.40;99.30;;;;;;5074983;28;20756;-55
2024/04/03 11:26:54;;;;;;;0.50;0.40;;;15.50;99.50;;;;;;5074491;28;20456;-56
2024/04/03 11:29:30;;;;;;;1.67;0.30;;;15.50;99.50;;;;;;5074622;28;20431;-55
2024/04/03 11:31:57;;;;;;;1.83;0.30;;;15.50;99.20;;;;;;5074980;28;20467;-56
2024/04/03 11:34:24;;;;;;;0.57;0.43;;;15.50;99.10;;;;;;5074933;28;20480;-57
2024/04/03 11:36:51;;;;;;;0.57;0.30;;;15.40;99.20;;;;;;5074663;28;20448;-58
2024/04/03 11:39:17;;;;;;;0.40;0.30;;;15.40;99.70;;;;;;5074819;28;20451;-57
2024/04/03 11:41:46;;;;;;;0.67;0.30;;;15.40;99.80;;;;;;5074837;28;20449;-57
2024/04/03 11:44:13;;;;;;;2.73;0.60;;;15.40;99.90;;;;;;5074848;28;20447;-57
2024/04/03 11:46:40;;;;;;;0.70;0.47;;;15.40;99.90;;;;;;5074778;28;20498;-57
2024/04/03 11:49:06;;;;;;;0.57;0.30;;;15.40;99.90;;;;;;5074669;28;20445;-58
2024/04/03 11:51:33;;;;;;;1.23;0.40;;;15.30;99.90;;;;;;5075304;28;20453;-57
2024/04/03 11:53:59;;;;;;;1.17;0.53;;;15.20;99.90;;;;;;5074309;28;20829;-58
2024/04/03 11:56:29;;;;;;;2.53;0.67;;;15.20;99.90;;;;;;5074361;28;20444;-57
2024/04/03 11:58:56;;;;;;;2.23;0.50;;;15.10;99.90;;;;;;5074454;28;20230;-57
2024/04/03 12:01:23;;;;;;;0.40;0.30;;;15.20;99.90;;;;;;5074508;28;20514;-57
2024/04/03 12:03:49;;;;;;;4.20;0.50;;;15.20;99.90;;;;;;5074395;28;20445;-58
2024/04/03 12:06:16;;;;;;;1.50;0.50;;;15.30;99.90;;;;;;5074367;28;20969;-57
2024/04/03 12:08:46;;;;;;;0.90;0.33;;;15.20;99.90;;;;;;5074406;28;20313;-58
2024/04/03 12:11:13;;;;;;;2.60;0.30;;;15.30;99.90;;;;;;5074387;28;20508;-57
2024/04/03 12:13:39;;;;;;;0.30;0.30;;;15.30;99.90;;;;;;5074204;28;20492;-57
2024/04/03 12:16:07;;;;;;;1.53;0.30;;;15.40;99.90;;;;;;5073761;28;20494;-57
2024/04/03 12:18:37;;;;;;;1.27;0.30;;;15.50;99.90;;;;;;5073956;28;20223;-57
2024/04/03 12:21:07;;;;;;;0.50;0.30;;;15.50;99.90;;;;;;5074459;28;20491;-57
2024/04/03 12:23:33;;;;;;;0.50;0.30;;;15.40;99.90;;;;;;5074078;28;20468;-57
2024/04/03 12:26:00;;;;;;;4.63;0.60;;;15.50;99.90;;;;;;5073908;28;20472;-57
2024/04/03 12:28:26;;;;;;;0.30;0.30;;;15.60;99.90;;;;;;5073685;28;20716;-57
2024/04/03 12:30:54;;;;;;;1.23;0.30;;;15.70;99.90;;;;;;5073610;28;20488;-57
2024/04/03 12:33:22;;;;;;;1.07;0.23;;;15.80;99.90;;;;;;5073856;28;20480;-57
2024/04/03 12:35:49;;;;;;;1.90;0.40;;;15.80;99.90;;;;;;5087427;28;20543;-57
2024/04/03 12:38:15;;;;;;;0.50;0.50;;;15.80;99.30;;;;;;5093925;28;20466;-56
2024/04/03 12:40:43;;;;;;;0.50;0.40;;;15.90;99.20;;;;;;5093715;28;20443;-56
2024/04/03 12:43:10;;;;;;;0.50;0.40;;;15.80;99.40;;;;;;5093913;28;20202;-56
2024/04/03 12:45:37;;;;;;;0.77;0.40;;;15.80;99.50;;;;;;5093537;28;20448;-56
2024/04/03 12:48:04;;;;;;;1.47;0.30;;;15.80;99.40;;;;;;5093675;28;20470;-57
2024/04/03 12:50:32;;;;;;;0.70;0.37;;;15.80;99.50;;;;;;5093851;28;20519;-56